sensor_id;sensor_type;location;lat;lon;timestamp;temperature;humidity
831;DHT22;397;50.564;7.272;2022-12-29T00:02:13;11.70;99.90
831;DHT22;397;50.564;7.272;2022-12-29T00:04:41;11.70;99.90
831;DHT22;397;50.564;7.272;2022-12-29T00:07:09;11.70;99.90
831;DHT22;397;50.564;7.272;2022-12-29T00:09:37;11.70;99.90
831;DHT22;397;50.564;7.272;2022-12-29T00:12:04;11.60;99.90
831;DHT22;397;50.564;7.272;2022-12-29T00:14:32;11.70;99.90
831;DHT22;397;50.564;7.272;2022-12-29T00:17:18;11.70;99.90
831;DHT22;397;50.564;7.272;2022-12-29T00:19:46;11.70;99.90
831;DHT22;397;50.564;7.272;2022-12-29T00:22:32;11.70;99.90
831;DHT22;397;50.564;7.272;2022-12-29T00:25:11;11.70;99.90
831;DHT22;397;50.564;7.272;2022-12-29T00:27:58;11.70;99.90
831;DHT22;397;50.564;7.272;2022-12-29T00:30:43;11.60;99.90
831;DHT22;397;50.564;7.272;2022-12-29T00:33:31;11.60;99.90
831;DHT22;397;50.564;7.272;2022-12-29T00:36:29;11.60;99.90
831;DHT22;397;50.564;7.272;2022-12-29T00:39:03;11.60;99.90
831;DHT22;397;50.564;7.272;2022-12-29T00:41:45;11.60;99.90
831;DHT22;397;50.564;7.272;2022-12-29T00:44:30;11.50;99.90
831;DHT22;397;50.564;7.272;2022-12-29T00:46:58;11.50;99.90
831;DHT22;397;50.564;7.272;2022-12-29T00:49:31;11.60;99.90
831;DHT22;397;50.564;7.272;2022-12-29T00:52:07;11.60;99.90
831;DHT22;397;50.564;7.272;2022-12-29T00:54:37;11.60;99.90
831;DHT22;397;50.564;7.272;2022-12-29T00:57:06;11.60;99.90
831;DHT22;397;50.564;7.272;2022-12-29T00:59:38;11.60;99.90
831;DHT22;397;50.564;7.272;2022-12-29T01:02:07;11.60;99.90
831;DHT22;397;50.564;7.272;2022-12-29T01:04:35;11.60;99.90
831;DHT22;397;50.564;7.272;2022-12-29T01:07:02;11.60;99.90
831;DHT22;397;50.564;7.272;2022-12-29T01:09:31;11.60;99.90
831;DHT22;397;50.564;7.272;2022-12-29T01:12:17;11.60;99.90
831;DHT22;397;50.564;7.272;2022-12-29T01:14:46;11.60;99.90
831;DHT22;397;50.564;7.272;2022-12-29T01:17:14;11.60;99.90
831;DHT22;397;50.564;7.272;2022-12-29T01:19:41;11.50;99.90
831;DHT22;397;50.564;7.272;2022-12-29T01:22:09;11.50;99.90
831;DHT22;397;50.564;7.272;2022-12-29T01:24:36;11.50;99.90
831;DHT22;397;50.564;7.272;2022-12-29T01:27:04;11.60;99.90
831;DHT22;397;50.564;7.272;2022-12-29T01:29:31;11.70;99.90
831;DHT22;397;50.564;7.272;2022-12-29T01:31:59;11.70;99.90
831;DHT22;397;50.564;7.272;2022-12-29T01:34:26;11.90;99.90
831;DHT22;397;50.564;7.272;2022-12-29T01:36:54;11.90;99.90
831;DHT22;397;50.564;7.272;2022-12-29T01:39:21;11.90;99.90
831;DHT22;397;50.564;7.272;2022-12-29T01:41:49;11.90;99.90
831;DHT22;397;50.564;7.272;2022-12-29T01:44:48;11.90;99.90
831;DHT22;397;50.564;7.272;2022-12-29T01:47:23;11.90;99.90
831;DHT22;397;50.564;7.272;2022-12-29T01:49:55;12.00;99.90
831;DHT22;397;50.564;7.272;2022-12-29T01:52:25;12.10;99.90
831;DHT22;397;50.564;7.272;2022-12-29T01:54:55;12.00;99.90
831;DHT22;397;50.564;7.272;2022-12-29T01:57:27;11.90;99.90
831;DHT22;397;50.564;7.272;2022-12-29T02:00:11;11.90;99.90
831;DHT22;397;50.564;7.272;2022-12-29T02:02:35;11.90;99.90
831;DHT22;397;50.564;7.272;2022-12-29T02:05:09;11.90;99.90
831;DHT22;397;50.564;7.272;2022-12-29T02:07:37;11.90;99.90
831;DHT22;397;50.564;7.272;2022-12-29T02:10:05;11.80;99.90
831;DHT22;397;50.564;7.272;2022-12-29T02:12:33;11.80;99.90
831;DHT22;397;50.564;7.272;2022-12-29T02:15:02;11.80;99.90
831;DHT22;397;50.564;7.272;2022-12-29T02:18:05;11.90;99.90
831;DHT22;397;50.564;7.272;2022-12-29T02:21:19;11.90;99.90
831;DHT22;397;50.564;7.272;2022-12-29T02:23:28;11.90;99.90
831;DHT22;397;50.564;7.272;2022-12-29T02:31:46;12.10;99.90
831;DHT22;397;50.564;7.272;2022-12-29T02:34:42;12.10;99.90
831;DHT22;397;50.564;7.272;2022-12-29T02:37:19;12.10;99.90
831;DHT22;397;50.564;7.272;2022-12-29T02:39:50;12.10;99.90
831;DHT22;397;50.564;7.272;2022-12-29T02:42:27;12.00;99.90
831;DHT22;397;50.564;7.272;2022-12-29T02:47:52;11.90;99.90
831;DHT22;397;50.564;7.272;2022-12-29T02:50:30;11.90;99.90
831;DHT22;397;50.564;7.272;2022-12-29T02:52:58;11.90;99.90
831;DHT22;397;50.564;7.272;2022-12-29T02:55:27;11.90;99.90
831;DHT22;397;50.564;7.272;2022-12-29T03:00:41;11.80;99.90
831;DHT22;397;50.564;7.272;2022-12-29T03:06:00;11.80;99.90
831;DHT22;397;50.564;7.272;2022-12-29T03:08:53;11.80;99.90
831;DHT22;397;50.564;7.272;2022-12-29T03:11:18;11.90;99.90
831;DHT22;397;50.564;7.272;2022-12-29T03:14:16;11.90;99.90
831;DHT22;397;50.564;7.272;2022-12-29T03:17:05;12.00;99.90
831;DHT22;397;50.564;7.272;2022-12-29T03:19:37;12.00;99.90
831;DHT22;397;50.564;7.272;2022-12-29T03:22:10;12.00;99.90
831;DHT22;397;50.564;7.272;2022-12-29T03:25:03;11.90;99.90
831;DHT22;397;50.564;7.272;2022-12-29T03:27:33;11.90;99.90
831;DHT22;397;50.564;7.272;2022-12-29T03:30:03;11.90;99.90
831;DHT22;397;50.564;7.272;2022-12-29T03:32:35;11.90;99.90
831;DHT22;397;50.564;7.272;2022-12-29T03:35:04;11.90;99.90
831;DHT22;397;50.564;7.272;2022-12-29T03:37:37;11.90;99.90
831;DHT22;397;50.564;7.272;2022-12-29T03:40:06;11.80;99.90
831;DHT22;397;50.564;7.272;2022-12-29T03:42:35;11.90;99.90
831;DHT22;397;50.564;7.272;2022-12-29T03:45:04;11.90;99.90
831;DHT22;397;50.564;7.272;2022-12-29T03:47:33;11.80;99.90
831;DHT22;397;50.564;7.272;2022-12-29T03:50:01;11.70;99.90
831;DHT22;397;50.564;7.272;2022-12-29T03:52:28;11.70;99.90
831;DHT22;397;50.564;7.272;2022-12-29T03:54:56;11.80;99.90
831;DHT22;397;50.564;7.272;2022-12-29T03:57:23;11.80;99.90
831;DHT22;397;50.564;7.272;2022-12-29T03:59:51;11.70;99.90
831;DHT22;397;50.564;7.272;2022-12-29T04:02:18;11.80;99.90
831;DHT22;397;50.564;7.272;2022-12-29T04:04:46;11.80;99.90
831;DHT22;397;50.564;7.272;2022-12-29T04:07:13;11.80;99.90
831;DHT22;397;50.564;7.272;2022-12-29T04:09:41;11.90;99.90
831;DHT22;397;50.564;7.272;2022-12-29T04:12:08;11.90;99.90
831;DHT22;397;50.564;7.272;2022-12-29T04:14:36;12.00;99.90
831;DHT22;397;50.564;7.272;2022-12-29T04:17:03;11.90;99.90
831;DHT22;397;50.564;7.272;2022-12-29T04:19:31;11.90;99.90
831;DHT22;397;50.564;7.272;2022-12-29T04:21:58;11.90;99.90
831;DHT22;397;50.564;7.272;2022-12-29T04:24:26;12.00;99.90
831;DHT22;397;50.564;7.272;2022-12-29T04:26:53;11.80;99.90
831;DHT22;397;50.564;7.272;2022-12-29T04:29:21;11.90;99.90
831;DHT22;397;50.564;7.272;2022-12-29T04:31:49;11.80;99.90
831;DHT22;397;50.564;7.272;2022-12-29T04:34:16;11.80;99.90
831;DHT22;397;50.564;7.272;2022-12-29T04:36:44;11.70;99.90
831;DHT22;397;50.564;7.272;2022-12-29T04:39:11;11.80;99.90
831;DHT22;397;50.564;7.272;2022-12-29T04:41:39;11.90;99.90
831;DHT22;397;50.564;7.272;2022-12-29T04:44:06;11.80;99.90
831;DHT22;397;50.564;7.272;2022-12-29T04:46:34;11.80;99.90
831;DHT22;397;50.564;7.272;2022-12-29T04:49:01;11.80;99.90
831;DHT22;397;50.564;7.272;2022-12-29T04:51:30;11.80;99.90
831;DHT22;397;50.564;7.272;2022-12-29T04:53:58;11.80;99.90
831;DHT22;397;50.564;7.272;2022-12-29T04:56:25;11.80;99.90
831;DHT22;397;50.564;7.272;2022-12-29T04:58:53;11.70;99.90
831;DHT22;397;50.564;7.272;2022-12-29T05:01:20;11.70;99.90
831;DHT22;397;50.564;7.272;2022-12-29T05:03:50;11.80;99.90
831;DHT22;397;50.564;7.272;2022-12-29T05:06:18;11.80;99.90
831;DHT22;397;50.564;7.272;2022-12-29T05:08:46;11.80;99.90
831;DHT22;397;50.564;7.272;2022-12-29T05:11:13;11.80;99.90
831;DHT22;397;50.564;7.272;2022-12-29T05:13:41;11.80;99.90
831;DHT22;397;50.564;7.272;2022-12-29T05:16:10;11.80;99.90
831;DHT22;397;50.564;7.272;2022-12-29T05:18:37;11.80;99.90
831;DHT22;397;50.564;7.272;2022-12-29T05:21:05;11.80;99.90
831;DHT22;397;50.564;7.272;2022-12-29T05:23:32;11.80;99.90
831;DHT22;397;50.564;7.272;2022-12-29T05:26:00;11.80;99.90
831;DHT22;397;50.564;7.272;2022-12-29T05:28:27;11.80;99.90
831;DHT22;397;50.564;7.272;2022-12-29T05:30:55;11.70;99.90
831;DHT22;397;50.564;7.272;2022-12-29T05:33:22;11.80;99.90
831;DHT22;397;50.564;7.272;2022-12-29T05:35:50;11.70;99.90
831;DHT22;397;50.564;7.272;2022-12-29T05:38:18;11.70;99.90
831;DHT22;397;50.564;7.272;2022-12-29T05:40:45;11.60;99.90
831;DHT22;397;50.564;7.272;2022-12-29T05:43:13;11.70;99.90
831;DHT22;397;50.564;7.272;2022-12-29T05:45:40;11.80;99.90
831;DHT22;397;50.564;7.272;2022-12-29T05:48:07;11.70;99.90
831;DHT22;397;50.564;7.272;2022-12-29T05:50:35;11.80;99.90
831;DHT22;397;50.564;7.272;2022-12-29T05:53:02;11.70;99.90
831;DHT22;397;50.564;7.272;2022-12-29T05:55:30;11.70;99.90
831;DHT22;397;50.564;7.272;2022-12-29T05:57:57;11.70;99.90
831;DHT22;397;50.564;7.272;2022-12-29T06:00:25;11.70;99.90
831;DHT22;397;50.564;7.272;2022-12-29T06:02:52;11.80;99.90
831;DHT22;397;50.564;7.272;2022-12-29T06:05:20;11.80;99.90
831;DHT22;397;50.564;7.272;2022-12-29T06:07:47;11.60;99.90
831;DHT22;397;50.564;7.272;2022-12-29T06:10:15;11.60;99.90
831;DHT22;397;50.564;7.272;2022-12-29T06:12:42;11.60;99.90
831;DHT22;397;50.564;7.272;2022-12-29T06:15:10;11.70;99.90
831;DHT22;397;50.564;7.272;2022-12-29T06:17:38;11.70;99.90
831;DHT22;397;50.564;7.272;2022-12-29T06:20:06;11.70;99.90
831;DHT22;397;50.564;7.272;2022-12-29T06:22:34;11.60;99.90
831;DHT22;397;50.564;7.272;2022-12-29T06:25:02;11.70;99.90
831;DHT22;397;50.564;7.272;2022-12-29T06:27:30;11.70;99.90
831;DHT22;397;50.564;7.272;2022-12-29T06:29:57;11.70;99.90
831;DHT22;397;50.564;7.272;2022-12-29T06:32:25;11.70;99.90
831;DHT22;397;50.564;7.272;2022-12-29T06:34:52;11.60;99.90
831;DHT22;397;50.564;7.272;2022-12-29T06:37:20;11.60;99.90
831;DHT22;397;50.564;7.272;2022-12-29T06:39:47;11.50;99.90
831;DHT22;397;50.564;7.272;2022-12-29T06:42:15;11.40;99.90
831;DHT22;397;50.564;7.272;2022-12-29T06:44:42;11.40;99.90
831;DHT22;397;50.564;7.272;2022-12-29T06:47:10;11.40;99.90
831;DHT22;397;50.564;7.272;2022-12-29T06:49:37;11.40;99.90
831;DHT22;397;50.564;7.272;2022-12-29T06:52:05;11.30;99.90
831;DHT22;397;50.564;7.272;2022-12-29T06:54:32;11.30;99.90
831;DHT22;397;50.564;7.272;2022-12-29T06:57:00;11.30;99.90
831;DHT22;397;50.564;7.272;2022-12-29T06:59:27;11.20;99.90
831;DHT22;397;50.564;7.272;2022-12-29T07:01:55;11.20;99.90
831;DHT22;397;50.564;7.272;2022-12-29T07:04:22;11.20;99.90
831;DHT22;397;50.564;7.272;2022-12-29T07:06:50;11.10;99.90
831;DHT22;397;50.564;7.272;2022-12-29T07:09:17;11.20;99.90
831;DHT22;397;50.564;7.272;2022-12-29T07:11:45;11.10;99.90
831;DHT22;397;50.564;7.272;2022-12-29T07:14:12;11.10;99.90
831;DHT22;397;50.564;7.272;2022-12-29T07:16:40;11.20;99.90
831;DHT22;397;50.564;7.272;2022-12-29T07:19:07;11.20;99.90
831;DHT22;397;50.564;7.272;2022-12-29T07:21:35;11.20;99.90
831;DHT22;397;50.564;7.272;2022-12-29T07:24:03;11.20;99.90
831;DHT22;397;50.564;7.272;2022-12-29T07:26:30;11.20;99.90
831;DHT22;397;50.564;7.272;2022-12-29T07:28:59;11.20;99.90
831;DHT22;397;50.564;7.272;2022-12-29T07:31:27;11.20;99.90
831;DHT22;397;50.564;7.272;2022-12-29T07:33:55;11.20;99.90
831;DHT22;397;50.564;7.272;2022-12-29T07:36:23;11.10;99.90
831;DHT22;397;50.564;7.272;2022-12-29T07:38:50;11.20;99.90
831;DHT22;397;50.564;7.272;2022-12-29T07:41:18;11.20;99.90
831;DHT22;397;50.564;7.272;2022-12-29T07:43:48;11.20;99.90
831;DHT22;397;50.564;7.272;2022-12-29T07:46:15;11.10;99.90
831;DHT22;397;50.564;7.272;2022-12-29T07:48:43;11.20;99.90
831;DHT22;397;50.564;7.272;2022-12-29T07:51:10;11.20;99.90
831;DHT22;397;50.564;7.272;2022-12-29T07:53:38;11.30;99.90
831;DHT22;397;50.564;7.272;2022-12-29T07:56:06;11.30;99.90
831;DHT22;397;50.564;7.272;2022-12-29T07:58:33;11.20;99.90
831;DHT22;397;50.564;7.272;2022-12-29T08:01:01;11.20;99.90
831;DHT22;397;50.564;7.272;2022-12-29T08:03:28;11.20;99.90
831;DHT22;397;50.564;7.272;2022-12-29T08:05:56;11.20;99.90
831;DHT22;397;50.564;7.272;2022-12-29T08:08:24;11.10;99.90
831;DHT22;397;50.564;7.272;2022-12-29T08:10:51;11.10;99.90
831;DHT22;397;50.564;7.272;2022-12-29T08:13:19;11.20;99.90
831;DHT22;397;50.564;7.272;2022-12-29T08:15:46;11.30;99.90
831;DHT22;397;50.564;7.272;2022-12-29T08:18:14;11.30;99.90
831;DHT22;397;50.564;7.272;2022-12-29T08:20:41;11.30;99.90
831;DHT22;397;50.564;7.272;2022-12-29T08:23:09;11.40;99.90
831;DHT22;397;50.564;7.272;2022-12-29T08:25:36;11.30;99.90
831;DHT22;397;50.564;7.272;2022-12-29T08:28:04;11.40;99.90
831;DHT22;397;50.564;7.272;2022-12-29T08:30:31;11.40;99.90
831;DHT22;397;50.564;7.272;2022-12-29T08:32:59;11.40;99.90
831;DHT22;397;50.564;7.272;2022-12-29T08:35:26;11.40;99.90
831;DHT22;397;50.564;7.272;2022-12-29T08:38:13;11.40;99.90
831;DHT22;397;50.564;7.272;2022-12-29T08:40:41;11.50;99.90
831;DHT22;397;50.564;7.272;2022-12-29T08:43:08;11.60;99.90
831;DHT22;397;50.564;7.272;2022-12-29T08:45:36;11.40;99.90
831;DHT22;397;50.564;7.272;2022-12-29T08:48:03;11.40;99.90
831;DHT22;397;50.564;7.272;2022-12-29T08:50:31;11.40;99.90
831;DHT22;397;50.564;7.272;2022-12-29T08:52:58;11.40;99.90
831;DHT22;397;50.564;7.272;2022-12-29T08:55:26;11.50;99.90
831;DHT22;397;50.564;7.272;2022-12-29T08:57:53;11.60;99.90
831;DHT22;397;50.564;7.272;2022-12-29T09:00:21;11.60;99.90
831;DHT22;397;50.564;7.272;2022-12-29T09:02:49;11.60;99.90
831;DHT22;397;50.564;7.272;2022-12-29T09:05:16;11.60;99.90
831;DHT22;397;50.564;7.272;2022-12-29T09:07:44;11.70;99.90
831;DHT22;397;50.564;7.272;2022-12-29T09:10:11;11.60;99.90
831;DHT22;397;50.564;7.272;2022-12-29T09:12:39;11.50;99.90
831;DHT22;397;50.564;7.272;2022-12-29T09:15:07;11.40;99.90
831;DHT22;397;50.564;7.272;2022-12-29T09:17:35;11.50;99.90
831;DHT22;397;50.564;7.272;2022-12-29T09:20:14;11.50;99.90
831;DHT22;397;50.564;7.272;2022-12-29T09:22:43;11.40;99.90
831;DHT22;397;50.564;7.272;2022-12-29T09:25:11;11.40;99.90
831;DHT22;397;50.564;7.272;2022-12-29T09:27:39;11.40;99.90
831;DHT22;397;50.564;7.272;2022-12-29T09:30:09;11.40;99.90
831;DHT22;397;50.564;7.272;2022-12-29T09:32:38;11.50;99.90
831;DHT22;397;50.564;7.272;2022-12-29T09:35:05;11.60;99.90
831;DHT22;397;50.564;7.272;2022-12-29T09:37:33;11.60;99.90
831;DHT22;397;50.564;7.272;2022-12-29T09:40:01;11.60;99.90
831;DHT22;397;50.564;7.272;2022-12-29T09:45:42;11.60;99.90
831;DHT22;397;50.564;7.272;2022-12-29T09:48:17;11.60;99.90
831;DHT22;397;50.564;7.272;2022-12-29T09:50:52;11.70;99.90
831;DHT22;397;50.564;7.272;2022-12-29T09:53:25;11.70;99.90
831;DHT22;397;50.564;7.272;2022-12-29T09:55:57;11.70;99.90
831;DHT22;397;50.564;7.272;2022-12-29T09:58:43;11.70;99.90
831;DHT22;397;50.564;7.272;2022-12-29T10:04:05;11.80;99.90
831;DHT22;397;50.564;7.272;2022-12-29T10:15:14;11.90;99.90
831;DHT22;397;50.564;7.272;2022-12-29T10:18:02;12.00;99.90
831;DHT22;397;50.564;7.272;2022-12-29T10:23:25;11.90;99.90
831;DHT22;397;50.564;7.272;2022-12-29T10:25:57;12.00;99.90
831;DHT22;397;50.564;7.272;2022-12-29T10:30:58;12.20;99.90
831;DHT22;397;50.564;7.272;2022-12-29T10:33:34;12.20;99.90
831;DHT22;397;50.564;7.272;2022-12-29T10:35:58;12.30;99.90
831;DHT22;397;50.564;7.272;2022-12-29T10:38:39;12.40;99.90
831;DHT22;397;50.564;7.272;2022-12-29T10:41:26;12.40;99.90
831;DHT22;397;50.564;7.272;2022-12-29T10:43:57;12.40;99.90
831;DHT22;397;50.564;7.272;2022-12-29T10:46:33;12.30;99.90
831;DHT22;397;50.564;7.272;2022-12-29T10:49:01;12.40;99.90
831;DHT22;397;50.564;7.272;2022-12-29T10:51:31;12.40;99.90
831;DHT22;397;50.564;7.272;2022-12-29T10:57:11;12.50;99.90
831;DHT22;397;50.564;7.272;2022-12-29T10:59:39;12.50;99.90
831;DHT22;397;50.564;7.272;2022-12-29T11:05:05;12.60;99.90
831;DHT22;397;50.564;7.272;2022-12-29T11:07:34;12.60;99.90
831;DHT22;397;50.564;7.272;2022-12-29T11:13:26;12.70;99.90
831;DHT22;397;50.564;7.272;2022-12-29T11:15:49;12.50;99.90
831;DHT22;397;50.564;7.272;2022-12-29T11:18:23;12.50;99.90
831;DHT22;397;50.564;7.272;2022-12-29T11:20:56;12.60;99.90
831;DHT22;397;50.564;7.272;2022-12-29T11:23:31;12.60;99.90
831;DHT22;397;50.564;7.272;2022-12-29T11:26:13;12.50;99.90
831;DHT22;397;50.564;7.272;2022-12-29T11:28:44;12.50;99.90
831;DHT22;397;50.564;7.272;2022-12-29T11:31:17;12.50;99.90
831;DHT22;397;50.564;7.272;2022-12-29T11:33:45;12.40;99.90
831;DHT22;397;50.564;7.272;2022-12-29T11:36:18;12.40;99.90
831;DHT22;397;50.564;7.272;2022-12-29T11:38:52;12.50;99.90
831;DHT22;397;50.564;7.272;2022-12-29T11:41:28;12.40;99.90
831;DHT22;397;50.564;7.272;2022-12-29T11:44:02;12.40;99.90
831;DHT22;397;50.564;7.272;2022-12-29T11:46:32;12.30;99.90
831;DHT22;397;50.564;7.272;2022-12-29T11:49:01;12.30;99.90
831;DHT22;397;50.564;7.272;2022-12-29T11:51:44;12.30;99.90
831;DHT22;397;50.564;7.272;2022-12-29T11:54:18;12.30;99.90
831;DHT22;397;50.564;7.272;2022-12-29T11:56:44;12.40;99.90
831;DHT22;397;50.564;7.272;2022-12-29T11:59:36;12.40;99.90
831;DHT22;397;50.564;7.272;2022-12-29T12:02:48;12.40;99.90
831;DHT22;397;50.564;7.272;2022-12-29T12:04:37;12.30;99.90
831;DHT22;397;50.564;7.272;2022-12-29T12:07:14;12.30;99.90
831;DHT22;397;50.564;7.272;2022-12-29T12:09:53;12.30;99.90
831;DHT22;397;50.564;7.272;2022-12-29T12:14:59;12.30;99.90
831;DHT22;397;50.564;7.272;2022-12-29T12:17:36;12.20;99.90
831;DHT22;397;50.564;7.272;2022-12-29T12:20:33;12.30;99.90
831;DHT22;397;50.564;7.272;2022-12-29T12:25:59;12.40;99.90
831;DHT22;397;50.564;7.272;2022-12-29T12:31:17;12.40;99.90
831;DHT22;397;50.564;7.272;2022-12-29T12:33:47;12.50;99.90
831;DHT22;397;50.564;7.272;2022-12-29T12:41:49;12.30;99.90
831;DHT22;397;50.564;7.272;2022-12-29T12:53:19;12.50;99.90
831;DHT22;397;50.564;7.272;2022-12-29T12:56:16;12.50;99.90
831;DHT22;397;50.564;7.272;2022-12-29T12:58:53;12.40;99.90
831;DHT22;397;50.564;7.272;2022-12-29T13:06:52;12.30;99.90
831;DHT22;397;50.564;7.272;2022-12-29T13:09:28;12.20;99.90
831;DHT22;397;50.564;7.272;2022-12-29T13:12:01;12.20;99.90
831;DHT22;397;50.564;7.272;2022-12-29T13:14:42;12.30;99.90
831;DHT22;397;50.564;7.272;2022-12-29T13:17:30;12.30;99.90
831;DHT22;397;50.564;7.272;2022-12-29T13:23:19;12.30;99.90
831;DHT22;397;50.564;7.272;2022-12-29T13:25:48;12.30;99.90
831;DHT22;397;50.564;7.272;2022-12-29T13:31:04;12.30;99.90
831;DHT22;397;50.564;7.272;2022-12-29T13:33:41;12.30;99.90
831;DHT22;397;50.564;7.272;2022-12-29T13:39:11;12.30;99.90
831;DHT22;397;50.564;7.272;2022-12-29T13:41:41;12.20;99.90
831;DHT22;397;50.564;7.272;2022-12-29T13:44:14;12.30;99.90
831;DHT22;397;50.564;7.272;2022-12-29T13:46:42;12.20;99.90
831;DHT22;397;50.564;7.272;2022-12-29T13:49:18;12.30;99.90
831;DHT22;397;50.564;7.272;2022-12-29T13:51:54;12.30;99.90
831;DHT22;397;50.564;7.272;2022-12-29T13:54:39;12.30;99.90
831;DHT22;397;50.564;7.272;2022-12-29T13:59:57;12.30;99.90
831;DHT22;397;50.564;7.272;2022-12-29T14:02:42;12.20;99.90
831;DHT22;397;50.564;7.272;2022-12-29T14:07:47;12.20;99.90
831;DHT22;397;50.564;7.272;2022-12-29T14:10:36;12.20;99.90
831;DHT22;397;50.564;7.272;2022-12-29T14:13:09;12.20;99.90
831;DHT22;397;50.564;7.272;2022-12-29T14:15:43;12.30;99.90
831;DHT22;397;50.564;7.272;2022-12-29T14:18:17;12.30;99.90
831;DHT22;397;50.564;7.272;2022-12-29T14:23:44;12.40;99.90
831;DHT22;397;50.564;7.272;2022-12-29T14:26:33;12.50;99.90
831;DHT22;397;50.564;7.272;2022-12-29T14:28:49;12.40;99.90
831;DHT22;397;50.564;7.272;2022-12-29T14:37:01;12.10;99.90
831;DHT22;397;50.564;7.272;2022-12-29T14:39:43;12.20;99.90
831;DHT22;397;50.564;7.272;2022-12-29T14:42:13;12.20;99.90
831;DHT22;397;50.564;7.272;2022-12-29T14:50:07;11.70;99.90
831;DHT22;397;50.564;7.272;2022-12-29T14:52:53;11.70;99.90
831;DHT22;397;50.564;7.272;2022-12-29T14:55:41;11.50;99.90
831;DHT22;397;50.564;7.272;2022-12-29T14:58:18;11.50;99.90
831;DHT22;397;50.564;7.272;2022-12-29T15:00:46;11.50;99.90
831;DHT22;397;50.564;7.272;2022-12-29T15:03:40;11.40;99.90
831;DHT22;397;50.564;7.272;2022-12-29T15:06:07;11.40;99.90
831;DHT22;397;50.564;7.272;2022-12-29T15:08:42;11.30;99.90
831;DHT22;397;50.564;7.272;2022-12-29T15:11:31;11.10;99.90
831;DHT22;397;50.564;7.272;2022-12-29T15:13:53;11.10;99.90
831;DHT22;397;50.564;7.272;2022-12-29T15:16:31;11.20;99.90
831;DHT22;397;50.564;7.272;2022-12-29T15:19:00;11.30;99.90
831;DHT22;397;50.564;7.272;2022-12-29T15:21:35;11.20;99.90
831;DHT22;397;50.564;7.272;2022-12-29T15:24:04;11.10;99.90
831;DHT22;397;50.564;7.272;2022-12-29T15:26:39;11.00;99.90
831;DHT22;397;50.564;7.272;2022-12-29T15:29:40;11.00;99.90
831;DHT22;397;50.564;7.272;2022-12-29T15:32:18;11.00;99.90
831;DHT22;397;50.564;7.272;2022-12-29T15:34:49;11.10;99.90
831;DHT22;397;50.564;7.272;2022-12-29T15:37:25;11.10;99.90
831;DHT22;397;50.564;7.272;2022-12-29T15:39:49;11.10;99.90
831;DHT22;397;50.564;7.272;2022-12-29T15:45:06;11.20;99.90
831;DHT22;397;50.564;7.272;2022-12-29T15:47:34;11.00;99.90
831;DHT22;397;50.564;7.272;2022-12-29T15:50:04;10.90;99.90
831;DHT22;397;50.564;7.272;2022-12-29T15:52:33;10.90;99.90
831;DHT22;397;50.564;7.272;2022-12-29T15:55:02;11.00;99.90
831;DHT22;397;50.564;7.272;2022-12-29T15:57:37;11.00;99.90
831;DHT22;397;50.564;7.272;2022-12-29T16:00:00;11.00;99.90
831;DHT22;397;50.564;7.272;2022-12-29T16:02:28;11.00;99.90
831;DHT22;397;50.564;7.272;2022-12-29T16:04:56;11.00;99.90
831;DHT22;397;50.564;7.272;2022-12-29T16:07:30;11.00;99.90
831;DHT22;397;50.564;7.272;2022-12-29T16:10:02;11.10;99.90
831;DHT22;397;50.564;7.272;2022-12-29T16:12:35;11.10;99.90
831;DHT22;397;50.564;7.272;2022-12-29T16:15:10;11.10;99.90
831;DHT22;397;50.564;7.272;2022-12-29T16:17:44;11.00;99.90
831;DHT22;397;50.564;7.272;2022-12-29T16:20:23;10.80;99.90
831;DHT22;397;50.564;7.272;2022-12-29T16:22:49;10.80;99.90
831;DHT22;397;50.564;7.272;2022-12-29T16:25:27;10.60;99.90
831;DHT22;397;50.564;7.272;2022-12-29T16:27:54;10.50;99.90
831;DHT22;397;50.564;7.272;2022-12-29T16:30:25;10.40;99.90
831;DHT22;397;50.564;7.272;2022-12-29T16:32:59;10.30;99.90
831;DHT22;397;50.564;7.272;2022-12-29T16:35:28;10.20;99.90
831;DHT22;397;50.564;7.272;2022-12-29T16:38:21;10.10;99.90
831;DHT22;397;50.564;7.272;2022-12-29T16:40:54;10.00;99.90
831;DHT22;397;50.564;7.272;2022-12-29T16:43:27;9.90;99.90
831;DHT22;397;50.564;7.272;2022-12-29T16:48:45;9.70;99.90
831;DHT22;397;50.564;7.272;2022-12-29T16:51:14;9.70;99.90
831;DHT22;397;50.564;7.272;2022-12-29T16:53:53;9.80;99.90
831;DHT22;397;50.564;7.272;2022-12-29T16:56:26;9.70;99.90
831;DHT22;397;50.564;7.272;2022-12-29T17:01:37;9.80;99.90
831;DHT22;397;50.564;7.272;2022-12-29T17:04:08;9.80;99.90
831;DHT22;397;50.564;7.272;2022-12-29T17:06:36;9.80;99.90
831;DHT22;397;50.564;7.272;2022-12-29T17:09:21;9.90;99.90
831;DHT22;397;50.564;7.272;2022-12-29T17:11:54;9.70;99.90
831;DHT22;397;50.564;7.272;2022-12-29T17:14:53;9.70;99.90
831;DHT22;397;50.564;7.272;2022-12-29T17:17:36;9.80;99.90
831;DHT22;397;50.564;7.272;2022-12-29T17:22:37;9.70;99.90
831;DHT22;397;50.564;7.272;2022-12-29T17:25:05;9.70;99.90
831;DHT22;397;50.564;7.272;2022-12-29T17:27:44;9.70;99.90
831;DHT22;397;50.564;7.272;2022-12-29T17:30:15;9.70;99.90
831;DHT22;397;50.564;7.272;2022-12-29T17:32:52;9.70;99.90
831;DHT22;397;50.564;7.272;2022-12-29T17:35:18;9.60;99.90
831;DHT22;397;50.564;7.272;2022-12-29T17:37:47;9.60;99.90
831;DHT22;397;50.564;7.272;2022-12-29T17:40:20;9.50;99.90
831;DHT22;397;50.564;7.272;2022-12-29T17:42:51;9.50;99.90
831;DHT22;397;50.564;7.272;2022-12-29T17:45:30;9.50;99.90
831;DHT22;397;50.564;7.272;2022-12-29T17:47:59;9.40;99.90
831;DHT22;397;50.564;7.272;2022-12-29T17:50:29;9.30;99.90
831;DHT22;397;50.564;7.272;2022-12-29T17:52:59;9.20;99.90
831;DHT22;397;50.564;7.272;2022-12-29T17:55:28;9.20;99.90
831;DHT22;397;50.564;7.272;2022-12-29T17:57:56;9.10;99.90
831;DHT22;397;50.564;7.272;2022-12-29T18:00:25;9.20;99.90
831;DHT22;397;50.564;7.272;2022-12-29T18:02:54;9.10;99.90
831;DHT22;397;50.564;7.272;2022-12-29T18:05:23;9.20;99.90
831;DHT22;397;50.564;7.272;2022-12-29T18:07:53;9.20;99.90
831;DHT22;397;50.564;7.272;2022-12-29T18:10:22;9.20;99.90
831;DHT22;397;50.564;7.272;2022-12-29T18:12:51;9.10;99.90
831;DHT22;397;50.564;7.272;2022-12-29T18:15:22;9.00;99.90
831;DHT22;397;50.564;7.272;2022-12-29T18:17:58;9.00;99.90
831;DHT22;397;50.564;7.272;2022-12-29T18:20:29;9.00;99.90
831;DHT22;397;50.564;7.272;2022-12-29T18:22:57;9.00;99.90
831;DHT22;397;50.564;7.272;2022-12-29T18:25:45;8.90;99.90
831;DHT22;397;50.564;7.272;2022-12-29T18:28:09;9.00;99.90
831;DHT22;397;50.564;7.272;2022-12-29T18:30:37;8.90;99.90
831;DHT22;397;50.564;7.272;2022-12-29T18:33:04;8.90;99.90
831;DHT22;397;50.564;7.272;2022-12-29T18:35:37;8.90;99.90
831;DHT22;397;50.564;7.272;2022-12-29T18:38:05;8.80;99.90
831;DHT22;397;50.564;7.272;2022-12-29T18:40:33;8.80;99.90
831;DHT22;397;50.564;7.272;2022-12-29T18:43:01;8.80;99.90
831;DHT22;397;50.564;7.272;2022-12-29T18:45:31;8.70;99.90
831;DHT22;397;50.564;7.272;2022-12-29T18:48:00;8.70;99.90
831;DHT22;397;50.564;7.272;2022-12-29T18:50:27;8.70;99.90
831;DHT22;397;50.564;7.272;2022-12-29T18:52:55;8.70;99.90
831;DHT22;397;50.564;7.272;2022-12-29T18:55:25;8.70;99.90
831;DHT22;397;50.564;7.272;2022-12-29T18:57:52;8.70;99.90